sensor_id;sensor_type;location;lat;lon;timestamp;P1;durP1;ratioP1;P2;durP2;ratioP2
29358;SDS011;16347;53.232;6.556;2024-02-14T00:01:50;15.20;;;5.85;;
29358;SDS011;16347;53.232;6.556;2024-02-14T00:04:18;13.45;;;5.95;;
29358;SDS011;16347;53.232;6.556;2024-02-14T00:06:47;11.07;;;5.80;;
29358;SDS011;16347;53.232;6.556;2024-02-14T00:09:15;18.05;;;6.70;;
29358;SDS011;16347;53.232;6.556;2024-02-14T00:11:43;14.50;;;6.40;;
29358;SDS011;16347;53.232;6.556;2024-02-14T00:14:13;13.60;;;5.88;;
29358;SDS011;16347;53.232;6.556;2024-02-14T00:16:41;14.52;;;6.43;;
29358;SDS011;16347;53.232;6.556;2024-02-14T00:19:08;12.45;;;6.55;;
29358;SDS011;16347;53.232;6.556;2024-02-14T00:21:37;15.95;;;7.20;;
29358;SDS011;16347;53.232;6.556;2024-02-14T00:24:05;17.60;;;6.22;;
29358;SDS011;16347;53.232;6.556;2024-02-14T00:26:33;10.15;;;6.53;;
29358;SDS011;16347;53.232;6.556;2024-02-14T00:29:02;13.02;;;6.88;;
29358;SDS011;16347;53.232;6.556;2024-02-14T00:31:31;15.40;;;7.72;;
29358;SDS011;16347;53.232;6.556;2024-02-14T00:34:00;34.70;;;18.92;;
29358;SDS011;16347;53.232;6.556;2024-02-14T00:36:28;12.20;;;7.68;;
29358;SDS011;16347;53.232;6.556;2024-02-14T00:38:55;15.68;;;8.13;;
29358;SDS011;16347;53.232;6.556;2024-02-14T00:41:23;12.63;;;7.22;;
29358;SDS011;16347;53.232;6.556;2024-02-14T00:43:55;11.60;;;7.35;;
29358;SDS011;16347;53.232;6.556;2024-02-14T00:46:23;13.82;;;7.78;;
29358;SDS011;16347;53.232;6.556;2024-02-14T00:48:53;13.95;;;7.63;;
29358;SDS011;16347;53.232;6.556;2024-02-14T00:51:21;13.40;;;7.88;;
29358;SDS011;16347;53.232;6.556;2024-02-14T00:53:49;11.65;;;8.15;;
29358;SDS011;16347;53.232;6.556;2024-02-14T00:56:17;13.02;;;8.13;;
29358;SDS011;16347;53.232;6.556;2024-02-14T00:58:45;14.73;;;8.10;;
29358;SDS011;16347;53.232;6.556;2024-02-14T01:01:13;12.38;;;8.50;;
29358;SDS011;16347;53.232;6.556;2024-02-14T01:03:41;14.82;;;8.50;;
29358;SDS011;16347;53.232;6.556;2024-02-14T01:06:10;14.95;;;8.23;;
29358;SDS011;16347;53.232;6.556;2024-02-14T01:08:38;12.05;;;8.85;;
29358;SDS011;16347;53.232;6.556;2024-02-14T01:11:06;13.77;;;7.47;;
29358;SDS011;16347;53.232;6.556;2024-02-14T01:13:34;12.05;;;7.75;;
29358;SDS011;16347;53.232;6.556;2024-02-14T01:16:02;13.15;;;8.05;;
29358;SDS011;16347;53.232;6.556;2024-02-14T01:18:30;10.45;;;7.35;;
29358;SDS011;16347;53.232;6.556;2024-02-14T01:20:58;10.63;;;7.88;;
29358;SDS011;16347;53.232;6.556;2024-02-14T01:23:28;13.82;;;8.00;;
29358;SDS011;16347;53.232;6.556;2024-02-14T01:25:56;10.45;;;7.85;;
29358;SDS011;16347;53.232;6.556;2024-02-14T01:28:24;16.77;;;7.78;;
29358;SDS011;16347;53.232;6.556;2024-02-14T01:30:53;14.98;;;7.97;;
29358;SDS011;16347;53.232;6.556;2024-02-14T01:33:22;12.60;;;8.18;;
29358;SDS011;16347;53.232;6.556;2024-02-14T01:35:50;12.30;;;8.27;;
29358;SDS011;16347;53.232;6.556;2024-02-14T01:38:18;10.45;;;7.35;;
29358;SDS011;16347;53.232;6.556;2024-02-14T01:40:47;10.48;;;7.78;;
29358;SDS011;16347;53.232;6.556;2024-02-14T01:43:15;10.43;;;7.25;;
29358;SDS011;16347;53.232;6.556;2024-02-14T01:45:43;11.38;;;7.28;;
29358;SDS011;16347;53.232;6.556;2024-02-14T01:48:11;10.32;;;7.35;;
29358;SDS011;16347;53.232;6.556;2024-02-14T01:50:41;8.45;;;6.20;;
29358;SDS011;16347;53.232;6.556;2024-02-14T01:53:09;9.20;;;6.20;;
29358;SDS011;16347;53.232;6.556;2024-02-14T01:55:37;10.93;;;6.93;;
29358;SDS011;16347;53.232;6.556;2024-02-14T01:58:06;9.65;;;6.55;;
29358;SDS011;16347;53.232;6.556;2024-02-14T02:00:34;10.80;;;6.35;;
29358;SDS011;16347;53.232;6.556;2024-02-14T02:03:08;8.23;;;6.00;;
29358;SDS011;16347;53.232;6.556;2024-02-14T02:05:37;7.40;;;6.20;;
29358;SDS011;16347;53.232;6.556;2024-02-14T02:08:06;10.18;;;5.93;;
29358;SDS011;16347;53.232;6.556;2024-02-14T02:10:35;10.35;;;6.38;;
29358;SDS011;16347;53.232;6.556;2024-02-14T02:13:04;8.32;;;6.03;;
29358;SDS011;16347;53.232;6.556;2024-02-14T02:15:33;8.00;;;5.70;;
29358;SDS011;16347;53.232;6.556;2024-02-14T02:18:01;7.13;;;5.47;;
29358;SDS011;16347;53.232;6.556;2024-02-14T02:20:32;7.13;;;5.32;;
29358;SDS011;16347;53.232;6.556;2024-02-14T02:23:02;7.47;;;5.22;;
29358;SDS011;16347;53.232;6.556;2024-02-14T02:25:31;8.23;;;5.72;;
29358;SDS011;16347;53.232;6.556;2024-02-14T02:27:58;7.80;;;5.72;;
29358;SDS011;16347;53.232;6.556;2024-02-14T02:30:26;6.30;;;5.20;;
29358;SDS011;16347;53.232;6.556;2024-02-14T02:32:54;9.32;;;5.20;;
29358;SDS011;16347;53.232;6.556;2024-02-14T02:35:22;7.57;;;5.28;;
29358;SDS011;16347;53.232;6.556;2024-02-14T02:37:51;7.10;;;5.35;;
29358;SDS011;16347;53.232;6.556;2024-02-14T02:40:21;6.53;;;4.97;;
29358;SDS011;16347;53.232;6.556;2024-02-14T02:42:49;6.15;;;5.53;;
29358;SDS011;16347;53.232;6.556;2024-02-14T02:45:17;7.65;;;5.80;;
29358;SDS011;16347;53.232;6.556;2024-02-14T02:47:45;6.40;;;5.07;;
29358;SDS011;16347;53.232;6.556;2024-02-14T02:50:14;7.82;;;5.72;;
29358;SDS011;16347;53.232;6.556;2024-02-14T02:52:42;7.88;;;5.43;;
29358;SDS011;16347;53.232;6.556;2024-02-14T02:55:10;7.30;;;5.88;;
29358;SDS011;16347;53.232;6.556;2024-02-14T02:57:40;7.22;;;5.55;;
29358;SDS011;16347;53.232;6.556;2024-02-14T03:00:08;7.25;;;5.35;;
29358;SDS011;16347;53.232;6.556;2024-02-14T03:02:39;7.55;;;5.75;;
29358;SDS011;16347;53.232;6.556;2024-02-14T03:05:10;6.00;;;5.28;;
29358;SDS011;16347;53.232;6.556;2024-02-14T03:07:46;6.95;;;5.15;;
29358;SDS011;16347;53.232;6.556;2024-02-14T03:10:15;7.07;;;5.68;;
29358;SDS011;16347;53.232;6.556;2024-02-14T03:12:46;7.65;;;5.32;;
29358;SDS011;16347;53.232;6.556;2024-02-14T03:15:15;8.25;;;5.30;;
29358;SDS011;16347;53.232;6.556;2024-02-14T03:17:45;6.22;;;4.82;;
29358;SDS011;16347;53.232;6.556;2024-02-14T03:20:13;5.78;;;4.82;;
29358;SDS011;16347;53.232;6.556;2024-02-14T03:22:44;6.55;;;5.10;;
29358;SDS011;16347;53.232;6.556;2024-02-14T03:25:15;7.35;;;5.60;;
29358;SDS011;16347;53.232;6.556;2024-02-14T03:27:44;7.13;;;5.20;;
29358;SDS011;16347;53.232;6.556;2024-02-14T03:30:15;7.30;;;5.38;;
29358;SDS011;16347;53.232;6.556;2024-02-14T03:32:45;6.65;;;4.85;;
29358;SDS011;16347;53.232;6.556;2024-02-14T03:35:13;6.10;;;4.93;;
29358;SDS011;16347;53.232;6.556;2024-02-14T03:37:41;6.25;;;4.80;;
29358;SDS011;16347;53.232;6.556;2024-02-14T03:40:14;6.18;;;4.90;;
29358;SDS011;16347;53.232;6.556;2024-02-14T03:42:42;6.70;;;5.03;;
29358;SDS011;16347;53.232;6.556;2024-02-14T03:45:10;7.60;;;5.22;;
29358;SDS011;16347;53.232;6.556;2024-02-14T03:47:40;6.13;;;4.55;;
29358;SDS011;16347;53.232;6.556;2024-02-14T03:50:08;5.25;;;4.32;;
29358;SDS011;16347;53.232;6.556;2024-02-14T03:52:37;7.10;;;4.85;;
29358;SDS011;16347;53.232;6.556;2024-02-14T03:55:05;5.07;;;4.40;;
29358;SDS011;16347;53.232;6.556;2024-02-14T03:57:35;5.22;;;4.07;;
29358;SDS011;16347;53.232;6.556;2024-02-14T04:00:05;8.63;;;4.88;;
29358;SDS011;16347;53.232;6.556;2024-02-14T04:02:40;6.10;;;4.63;;
29358;SDS011;16347;53.232;6.556;2024-02-14T04:05:08;6.75;;;5.10;;
29358;SDS011;16347;53.232;6.556;2024-02-14T04:07:36;7.60;;;5.30;;
29358;SDS011;16347;53.232;6.556;2024-02-14T04:10:05;9.65;;;5.53;;
29358;SDS011;16347;53.232;6.556;2024-02-14T04:12:34;8.07;;;5.45;;
29358;SDS011;16347;53.232;6.556;2024-02-14T04:15:02;8.40;;;6.05;;
29358;SDS011;16347;53.232;6.556;2024-02-14T04:17:30;8.10;;;5.32;;
29358;SDS011;16347;53.232;6.556;2024-02-14T04:19:59;7.82;;;5.65;;
29358;SDS011;16347;53.232;6.556;2024-02-14T04:22:27;8.50;;;5.97;;
29358;SDS011;16347;53.232;6.556;2024-02-14T04:24:55;8.73;;;6.53;;
29358;SDS011;16347;53.232;6.556;2024-02-14T04:27:23;8.65;;;6.80;;
29358;SDS011;16347;53.232;6.556;2024-02-14T04:29:50;10.23;;;7.00;;
29358;SDS011;16347;53.232;6.556;2024-02-14T04:32:18;9.82;;;7.15;;
29358;SDS011;16347;53.232;6.556;2024-02-14T04:34:46;10.77;;;7.10;;
29358;SDS011;16347;53.232;6.556;2024-02-14T04:37:17;8.85;;;7.10;;
29358;SDS011;16347;53.232;6.556;2024-02-14T04:39:46;10.25;;;7.30;;
29358;SDS011;16347;53.232;6.556;2024-02-14T04:42:14;12.98;;;8.07;;
29358;SDS011;16347;53.232;6.556;2024-02-14T04:44:42;10.13;;;7.90;;
29358;SDS011;16347;53.232;6.556;2024-02-14T04:47:10;10.73;;;8.32;;
29358;SDS011;16347;53.232;6.556;2024-02-14T04:49:38;11.68;;;7.70;;
29358;SDS011;16347;53.232;6.556;2024-02-14T04:52:06;8.93;;;7.03;;
29358;SDS011;16347;53.232;6.556;2024-02-14T04:54:36;10.15;;;7.45;;
29358;SDS011;16347;53.232;6.556;2024-02-14T04:57:04;9.20;;;6.70;;
29358;SDS011;16347;53.232;6.556;2024-02-14T04:59:32;9.93;;;7.10;;
29358;SDS011;16347;53.232;6.556;2024-02-14T05:02:00;10.23;;;7.05;;
29358;SDS011;16347;53.232;6.556;2024-02-14T05:04:28;9.82;;;6.70;;
29358;SDS011;16347;53.232;6.556;2024-02-14T05:06:56;9.10;;;7.53;;
29358;SDS011;16347;53.232;6.556;2024-02-14T05:09:25;9.73;;;7.38;;
29358;SDS011;16347;53.232;6.556;2024-02-14T05:11:54;12.45;;;7.28;;
29358;SDS011;16347;53.232;6.556;2024-02-14T05:14:22;12.60;;;8.05;;
29358;SDS011;16347;53.232;6.556;2024-02-14T05:16:50;10.75;;;7.75;;
29358;SDS011;16347;53.232;6.556;2024-02-14T05:19:18;11.55;;;7.47;;
29358;SDS011;16347;53.232;6.556;2024-02-14T05:21:48;10.95;;;7.80;;
29358;SDS011;16347;53.232;6.556;2024-02-14T05:24:17;13.50;;;7.55;;
29358;SDS011;16347;53.232;6.556;2024-02-14T05:26:45;10.68;;;7.85;;
29358;SDS011;16347;53.232;6.556;2024-02-14T05:29:14;11.32;;;7.38;;
29358;SDS011;16347;53.232;6.556;2024-02-14T05:31:45;11.30;;;7.57;;
29358;SDS011;16347;53.232;6.556;2024-02-14T05:34:15;12.95;;;8.02;;
29358;SDS011;16347;53.232;6.556;2024-02-14T05:36:44;10.30;;;7.35;;
29358;SDS011;16347;53.232;6.556;2024-02-14T05:39:14;9.95;;;7.15;;
29358;SDS011;16347;53.232;6.556;2024-02-14T05:41:42;10.88;;;7.25;;
29358;SDS011;16347;53.232;6.556;2024-02-14T05:44:11;13.88;;;7.63;;
29358;SDS011;16347;53.232;6.556;2024-02-14T05:46:41;9.75;;;6.90;;
29358;SDS011;16347;53.232;6.556;2024-02-14T05:49:09;13.77;;;7.53;;
29358;SDS011;16347;53.232;6.556;2024-02-14T05:51:37;9.63;;;6.93;;
29358;SDS011;16347;53.232;6.556;2024-02-14T05:54:06;11.93;;;7.13;;
29358;SDS011;16347;53.232;6.556;2024-02-14T05:56:34;9.70;;;6.57;;
29358;SDS011;16347;53.232;6.556;2024-02-14T05:59:02;9.88;;;6.88;;
29358;SDS011;16347;53.232;6.556;2024-02-14T06:01:31;9.57;;;6.65;;
29358;SDS011;16347;53.232;6.556;2024-02-14T06:04:01;12.10;;;6.90;;
29358;SDS011;16347;53.232;6.556;2024-02-14T06:06:29;12.30;;;6.50;;
29358;SDS011;16347;53.232;6.556;2024-02-14T06:08:58;9.10;;;6.38;;
29358;SDS011;16347;53.232;6.556;2024-02-14T06:11:26;11.75;;;6.53;;
29358;SDS011;16347;53.232;6.556;2024-02-14T06:13:54;13.93;;;5.97;;
29358;SDS011;16347;53.232;6.556;2024-02-14T06:16:24;10.02;;;6.07;;
29358;SDS011;16347;53.232;6.556;2024-02-14T06:18:53;12.02;;;6.60;;
29358;SDS011;16347;53.232;6.556;2024-02-14T06:21:25;8.77;;;5.75;;
29358;SDS011;16347;53.232;6.556;2024-02-14T06:23:55;10.15;;;6.05;;
29358;SDS011;16347;53.232;6.556;2024-02-14T06:26:25;11.15;;;6.13;;
29358;SDS011;16347;53.232;6.556;2024-02-14T06:28:55;13.45;;;6.68;;
29358;SDS011;16347;53.232;6.556;2024-02-14T06:31:22;14.55;;;5.85;;
29358;SDS011;16347;53.232;6.556;2024-02-14T06:33:50;12.15;;;6.50;;
29358;SDS011;16347;53.232;6.556;2024-02-14T06:36:19;18.33;;;7.25;;
29358;SDS011;16347;53.232;6.556;2024-02-14T06:38:48;26.23;;;7.93;;
29358;SDS011;16347;53.232;6.556;2024-02-14T06:41:17;32.50;;;9.63;;
29358;SDS011;16347;53.232;6.556;2024-02-14T06:43:46;34.28;;;9.63;;
29358;SDS011;16347;53.232;6.556;2024-02-14T06:46:14;40.33;;;10.30;;
29358;SDS011;16347;53.232;6.556;2024-02-14T06:48:42;53.30;;;10.38;;
29358;SDS011;16347;53.232;6.556;2024-02-14T06:51:11;45.53;;;10.45;;
29358;SDS011;16347;53.232;6.556;2024-02-14T06:53:39;47.95;;;10.93;;
29358;SDS011;16347;53.232;6.556;2024-02-14T06:56:08;54.63;;;11.65;;
29358;SDS011;16347;53.232;6.556;2024-02-14T06:58:36;51.67;;;11.00;;
29358;SDS011;16347;53.232;6.556;2024-02-14T07:01:04;49.80;;;11.60;;
29358;SDS011;16347;53.232;6.556;2024-02-14T07:03:32;55.83;;;10.60;;
29358;SDS011;16347;53.232;6.556;2024-02-14T07:06:00;64.03;;;10.48;;
29358;SDS011;16347;53.232;6.556;2024-02-14T07:08:28;64.32;;;11.65;;
29358;SDS011;16347;53.232;6.556;2024-02-14T07:10:56;64.63;;;10.55;;
29358;SDS011;16347;53.232;6.556;2024-02-14T07:13:26;53.15;;;10.45;;
29358;SDS011;16347;53.232;6.556;2024-02-14T07:15:54;59.15;;;8.75;;
29358;SDS011;16347;53.232;6.556;2024-02-14T07:18:22;62.55;;;9.45;;
29358;SDS011;16347;53.232;6.556;2024-02-14T07:20:50;48.78;;;8.93;;
29358;SDS011;16347;53.232;6.556;2024-02-14T07:23:18;57.85;;;10.07;;
29358;SDS011;16347;53.232;6.556;2024-02-14T07:25:46;63.13;;;10.07;;
29358;SDS011;16347;53.232;6.556;2024-02-14T07:28:14;72.35;;;11.07;;
29358;SDS011;16347;53.232;6.556;2024-02-14T07:30:45;58.08;;;10.23;;
29358;SDS011;16347;53.232;6.556;2024-02-14T07:33:13;64.50;;;10.07;;
29358;SDS011;16347;53.232;6.556;2024-02-14T07:35:41;67.97;;;9.55;;
29358;SDS011;16347;53.232;6.556;2024-02-14T07:38:09;75.07;;;9.32;;
29358;SDS011;16347;53.232;6.556;2024-02-14T07:40:37;57.65;;;9.25;;
29358;SDS011;16347;53.232;6.556;2024-02-14T07:43:06;76.88;;;9.48;;
29358;SDS011;16347;53.232;6.556;2024-02-14T07:45:34;58.45;;;9.25;;
29358;SDS011;16347;53.232;6.556;2024-02-14T07:48:04;52.20;;;7.53;;
29358;SDS011;16347;53.232;6.556;2024-02-14T07:50:34;77.40;;;9.07;;
29358;SDS011;16347;53.232;6.556;2024-02-14T07:53:03;50.35;;;7.55;;
29358;SDS011;16347;53.232;6.556;2024-02-14T07:55:33;62.00;;;8.25;;
29358;SDS011;16347;53.232;6.556;2024-02-14T07:58:01;58.60;;;8.00;;
29358;SDS011;16347;53.232;6.556;2024-02-14T08:00:29;51.78;;;7.57;;
29358;SDS011;16347;53.232;6.556;2024-02-14T08:02:57;72.13;;;8.98;;
29358;SDS011;16347;53.232;6.556;2024-02-14T08:05:27;59.08;;;8.38;;
29358;SDS011;16347;53.232;6.556;2024-02-14T08:07:55;60.45;;;8.98;;
29358;SDS011;16347;53.232;6.556;2024-02-14T08:10:23;67.40;;;9.30;;
29358;SDS011;16347;53.232;6.556;2024-02-14T08:12:51;69.10;;;9.23;;
29358;SDS011;16347;53.232;6.556;2024-02-14T08:15:19;57.75;;;8.38;;
29358;SDS011;16347;53.232;6.556;2024-02-14T08:17:47;70.35;;;9.00;;
29358;SDS011;16347;53.232;6.556;2024-02-14T08:20:15;67.65;;;9.73;;
29358;SDS011;16347;53.232;6.556;2024-02-14T08:22:45;71.13;;;9.32;;
29358;SDS011;16347;53.232;6.556;2024-02-14T08:25:14;60.75;;;7.95;;
29358;SDS011;16347;53.232;6.556;2024-02-14T08:27:42;66.00;;;8.73;;
29358;SDS011;16347;53.232;6.556;2024-02-14T08:30:10;66.60;;;8.85;;
29358;SDS011;16347;53.232;6.556;2024-02-14T08:32:39;72.32;;;9.80;;
29358;SDS011;16347;53.232;6.556;2024-02-14T08:35:07;64.97;;;7.60;;
29358;SDS011;16347;53.232;6.556;2024-02-14T08:37:36;64.05;;;8.88;;
29358;SDS011;16347;53.232;6.556;2024-02-14T08:40:08;60.08;;;9.05;;
29358;SDS011;16347;53.232;6.556;2024-02-14T08:42:38;64.47;;;9.35;;
29358;SDS011;16347;53.232;6.556;2024-02-14T08:45:07;51.50;;;8.80;;
29358;SDS011;16347;53.232;6.556;2024-02-14T08:47:37;49.28;;;9.68;;
29358;SDS011;16347;53.232;6.556;2024-02-14T08:50:05;63.90;;;10.13;;
29358;SDS011;16347;53.232;6.556;2024-02-14T08:52:35;60.15;;;9.30;;
29358;SDS011;16347;53.232;6.556;2024-02-14T08:55:04;58.80;;;10.00;;
29358;SDS011;16347;53.232;6.556;2024-02-14T09:00:07;50.03;;;8.43;;
29358;SDS011;16347;53.232;6.556;2024-02-14T09:02:37;46.95;;;8.00;;
29358;SDS011;16347;53.232;6.556;2024-02-14T09:05:05;51.17;;;9.95;;
29358;SDS011;16347;53.232;6.556;2024-02-14T09:07:33;44.85;;;9.27;;
29358;SDS011;16347;53.232;6.556;2024-02-14T09:10:03;40.30;;;8.07;;
29358;SDS011;16347;53.232;6.556;2024-02-14T09:12:33;49.53;;;9.15;;
29358;SDS011;16347;53.232;6.556;2024-02-14T09:15:02;55.67;;;9.48;;
29358;SDS011;16347;53.232;6.556;2024-02-14T09:17:31;40.00;;;9.88;;
29358;SDS011;16347;53.232;6.556;2024-02-14T09:19:59;42.13;;;9.27;;
29358;SDS011;16347;53.232;6.556;2024-02-14T09:22:27;40.63;;;10.55;;
29358;SDS011;16347;53.232;6.556;2024-02-14T09:24:56;39.63;;;11.85;;
29358;SDS011;16347;53.232;6.556;2024-02-14T09:27:24;37.30;;;10.93;;
29358;SDS011;16347;53.232;6.556;2024-02-14T09:29:52;60.15;;;13.10;;
29358;SDS011;16347;53.232;6.556;2024-02-14T09:32:22;44.78;;;14.88;;
29358;SDS011;16347;53.232;6.556;2024-02-14T09:34:49;47.30;;;14.23;;
29358;SDS011;16347;53.232;6.556;2024-02-14T09:37:17;59.92;;;15.50;;
29358;SDS011;16347;53.232;6.556;2024-02-14T09:39:45;56.78;;;16.40;;
29358;SDS011;16347;53.232;6.556;2024-02-14T09:42:13;55.20;;;16.10;;
29358;SDS011;16347;53.232;6.556;2024-02-14T09:44:46;54.67;;;16.65;;
29358;SDS011;16347;53.232;6.556;2024-02-14T09:47:21;53.45;;;15.45;;
29358;SDS011;16347;53.232;6.556;2024-02-14T09:49:49;56.58;;;15.25;;
29358;SDS011;16347;53.232;6.556;2024-02-14T09:52:19;58.80;;;14.05;;
29358;SDS011;16347;53.232;6.556;2024-02-14T09:54:48;47.53;;;13.18;;
29358;SDS011;16347;53.232;6.556;2024-02-14T09:57:18;49.38;;;12.55;;
29358;SDS011;16347;53.232;6.556;2024-02-14T09:59:46;51.53;;;12.65;;
29358;SDS011;16347;53.232;6.556;2024-02-14T10:02:16;37.03;;;12.23;;
29358;SDS011;16347;53.232;6.556;2024-02-14T10:04:46;40.13;;;12.18;;
29358;SDS011;16347;53.232;6.556;2024-02-14T10:07:14;37.25;;;11.40;;
29358;SDS011;16347;53.232;6.556;2024-02-14T10:09:43;41.58;;;11.88;;
29358;SDS011;16347;53.232;6.556;2024-02-14T10:12:11;34.78;;;11.63;;
29358;SDS011;16347;53.232;6.556;2024-02-14T10:14:40;39.13;;;11.73;;
29358;SDS011;16347;53.232;6.556;2024-02-14T10:17:16;48.47;;;12.32;;
29358;SDS011;16347;53.232;6.556;2024-02-14T10:19:56;34.28;;;11.27;;
29358;SDS011;16347;53.232;6.556;2024-02-14T10:22:25;40.63;;;11.45;;
29358;SDS011;16347;53.232;6.556;2024-02-14T10:25:00;32.88;;;10.05;;
29358;SDS011;16347;53.232;6.556;2024-02-14T10:27:28;37.80;;;10.10;;
29358;SDS011;16347;53.232;6.556;2024-02-14T10:29:57;31.17;;;8.90;;
29358;SDS011;16347;53.232;6.556;2024-02-14T10:32:27;31.38;;;10.32;;
29358;SDS011;16347;53.232;6.556;2024-02-14T10:34:56;33.15;;;8.65;;
29358;SDS011;16347;53.232;6.556;2024-02-14T10:37:25;23.67;;;8.65;;
29358;SDS011;16347;53.232;6.556;2024-02-14T10:39:56;31.27;;;9.95;;
29358;SDS011;16347;53.232;6.556;2024-02-14T10:42:28;24.02;;;9.10;;
29358;SDS011;16347;53.232;6.556;2024-02-14T10:44:55;33.80;;;9.40;;
29358;SDS011;16347;53.232;6.556;2024-02-14T10:47:24;33.63;;;10.77;;
29358;SDS011;16347;53.232;6.556;2024-02-14T10:52:30;29.88;;;9.88;;
29358;SDS011;16347;53.232;6.556;2024-02-14T10:54:59;20.55;;;8.75;;
29358;SDS011;16347;53.232;6.556;2024-02-14T10:57:29;18.20;;;6.90;;
29358;SDS011;16347;53.232;6.556;2024-02-14T10:59:58;15.63;;;6.40;;
29358;SDS011;16347;53.232;6.556;2024-02-14T11:02:28;16.92;;;6.75;;
29358;SDS011;16347;53.232;6.556;2024-02-14T11:05:00;15.93;;;5.68;;
29358;SDS011;16347;53.232;6.556;2024-02-14T11:07:29;16.38;;;5.75;;
29358;SDS011;16347;53.232;6.556;2024-02-14T11:10:04;15.15;;;5.82;;
29358;SDS011;16347;53.232;6.556;2024-02-14T11:12:33;13.52;;;5.60;;
29358;SDS011;16347;53.232;6.556;2024-02-14T11:15:08;11.98;;;5.70;;
29358;SDS011;16347;53.232;6.556;2024-02-14T11:17:38;10.73;;;5.38;;
29358;SDS011;16347;53.232;6.556;2024-02-14T11:20:16;12.73;;;5.60;;
29358;SDS011;16347;53.232;6.556;2024-02-14T11:22:56;12.57;;;6.30;;
29358;SDS011;16347;53.232;6.556;2024-02-14T11:25:28;15.48;;;6.82;;
29358;SDS011;16347;53.232;6.556;2024-02-14T11:27:57;14.38;;;7.90;;
29358;SDS011;16347;53.232;6.556;2024-02-14T11:30:33;18.02;;;7.80;;
29358;SDS011;16347;53.232;6.556;2024-02-14T11:35:53;15.55;;;8.18;;
29358;SDS011;16347;53.232;6.556;2024-02-14T11:38:23;21.02;;;7.22;;
29358;SDS011;16347;53.232;6.556;2024-02-14T11:40:53;20.73;;;7.80;;
29358;SDS011;16347;53.232;6.556;2024-02-14T11:43:23;18.35;;;8.38;;
29358;SDS011;16347;53.232;6.556;2024-02-14T11:45:52;21.50;;;8.25;;
29358;SDS011;16347;53.232;6.556;2024-02-14T11:48:20;18.88;;;7.80;;
29358;SDS011;16347;53.232;6.556;2024-02-14T11:50:51;12.65;;;6.85;;
29358;SDS011;16347;53.232;6.556;2024-02-14T11:53:22;13.73;;;6.20;;
29358;SDS011;16347;53.232;6.556;2024-02-14T11:55:50;18.70;;;7.07;;
29358;SDS011;16347;53.232;6.556;2024-02-14T11:58:18;14.88;;;6.70;;
29358;SDS011;16347;53.232;6.556;2024-02-14T12:00:46;11.63;;;5.43;;
29358;SDS011;16347;53.232;6.556;2024-02-14T12:03:16;10.00;;;5.57;;
29358;SDS011;16347;53.232;6.556;2024-02-14T12:05:46;11.93;;;5.55;;
29358;SDS011;16347;53.232;6.556;2024-02-14T12:08:16;8.32;;;5.53;;
29358;SDS011;16347;53.232;6.556;2024-02-14T12:10:45;7.05;;;4.43;;
29358;SDS011;16347;53.232;6.556;2024-02-14T12:13:17;8.10;;;4.15;;
29358;SDS011;16347;53.232;6.556;2024-02-14T12:15:48;7.93;;;3.80;;
29358;SDS011;16347;53.232;6.556;2024-02-14T12:18:19;8.13;;;4.28;;
29358;SDS011;16347;53.232;6.556;2024-02-14T12:20:48;8.60;;;4.13;;
29358;SDS011;16347;53.232;6.556;2024-02-14T12:23:23;7.82;;;4.20;;
29358;SDS011;16347;53.232;6.556;2024-02-14T12:25:53;9.82;;;4.50;;
29358;SDS011;16347;53.232;6.556;2024-02-14T12:28:22;8.90;;;4.15;;
29358;SDS011;16347;53.232;6.556;2024-02-14T12:30:51;7.63;;;4.28;;
29358;SDS011;16347;53.232;6.556;2024-02-14T12:33:23;6.10;;;3.97;;
29358;SDS011;16347;53.232;6.556;2024-02-14T12:35:52;5.70;;;3.72;;
29358;SDS011;16347;53.232;6.556;2024-02-14T12:38:21;6.38;;;4.40;;
29358;SDS011;16347;53.232;6.556;2024-02-14T12:40:51;6.97;;;4.35;;
29358;SDS011;16347;53.232;6.556;2024-02-14T12:43:20;11.45;;;5.18;;
29358;SDS011;16347;53.232;6.556;2024-02-14T12:45:48;8.57;;;4.88;;
29358;SDS011;16347;53.232;6.556;2024-02-14T12:48:22;11.57;;;5.75;;
29358;SDS011;16347;53.232;6.556;2024-02-14T12:50:53;9.48;;;6.30;;
29358;SDS011;16347;53.232;6.556;2024-02-14T12:53:24;12.68;;;6.13;;
29358;SDS011;16347;53.232;6.556;2024-02-14T12:55:53;11.27;;;6.28;;
29358;SDS011;16347;53.232;6.556;2024-02-14T12:58:20;14.90;;;6.65;;
29358;SDS011;16347;53.232;6.556;2024-02-14T13:00:48;10.63;;;6.43;;
29358;SDS011;16347;53.232;6.556;2024-02-14T13:03:16;14.00;;;6.57;;
29358;SDS011;16347;53.232;6.556;2024-02-14T13:05:44;8.10;;;5.88;;
29358;SDS011;16347;53.232;6.556;2024-02-14T13:08:14;8.30;;;5.50;;
29358;SDS011;16347;53.232;6.556;2024-02-14T13:10:44;13.35;;;6.50;;
29358;SDS011;16347;53.232;6.556;2024-02-14T13:13:13;9.52;;;6.10;;
29358;SDS011;16347;53.232;6.556;2024-02-14T13:15:41;8.73;;;5.65;;
29358;SDS011;16347;53.232;6.556;2024-02-14T13:18:11;7.03;;;5.38;;
29358;SDS011;16347;53.232;6.556;2024-02-14T13:20:40;8.38;;;6.03;;
29358;SDS011;16347;53.232;6.556;2024-02-14T13:23:09;9.50;;;5.63;;
29358;SDS011;16347;53.232;6.556;2024-02-14T13:25:37;8.05;;;5.78;;
29358;SDS011;16347;53.232;6.556;2024-02-14T13:28:07;6.53;;;5.57;;
29358;SDS011;16347;53.232;6.556;2024-02-14T13:30:35;8.10;;;5.85;;
29358;SDS011;16347;53.232;6.556;2024-02-14T13:33:04;8.60;;;6.20;;
29358;SDS011;16347;53.232;6.556;2024-02-14T13:35:32;9.63;;;7.05;;
29358;SDS011;16347;53.232;6.556;2024-02-14T13:38:04;8.55;;;6.18;;
29358;SDS011;16347;53.232;6.556;2024-02-14T13:40:33;10.52;;;7.07;;
29358;SDS011;16347;53.232;6.556;2024-02-14T13:43:01;9.93;;;6.78;;
29358;SDS011;16347;53.232;6.556;2024-02-14T13:45:43;14.68;;;7.22;;
29358;SDS011;16347;53.232;6.556;2024-02-14T13:48:12;12.65;;;7.50;;
29358;SDS011;16347;53.232;6.556;2024-02-14T13:50:40;11.63;;;7.45;;
29358;SDS011;16347;53.232;6.556;2024-02-14T13:53:09;13.02;;;7.53;;
29358;SDS011;16347;53.232;6.556;2024-02-14T13:55:37;10.98;;;7.63;;
29358;SDS011;16347;53.232;6.556;2024-02-14T13:58:06;11.32;;;7.60;;
29358;SDS011;16347;53.232;6.556;2024-02-14T14:00:42;11.63;;;8.05;;
29358;SDS011;16347;53.232;6.556;2024-02-14T14:03:10;14.88;;;8.95;;
29358;SDS011;16347;53.232;6.556;2024-02-14T14:05:38;13.00;;;9.02;;
29358;SDS011;16347;53.232;6.556;2024-02-14T14:08:07;14.73;;;9.35;;
29358;SDS011;16347;53.232;6.556;2024-02-14T14:10:35;15.88;;;9.52;;
29358;SDS011;16347;53.232;6.556;2024-02-14T14:13:03;17.45;;;9.98;;
29358;SDS011;16347;53.232;6.556;2024-02-14T14:15:31;15.35;;;10.40;;
29358;SDS011;16347;53.232;6.556;2024-02-14T14:18:01;14.80;;;10.23;;
29358;SDS011;16347;53.232;6.556;2024-02-14T14:20:29;20.48;;;11.43;;
29358;SDS011;16347;53.232;6.556;2024-02-14T14:22:58;21.33;;;11.73;;
29358;SDS011;16347;53.232;6.556;2024-02-14T14:25:26;16.33;;;12.32;;
29358;SDS011;16347;53.232;6.556;2024-02-14T14:27:55;17.45;;;12.23;;
29358;SDS011;16347;53.232;6.556;2024-02-14T14:30:23;24.00;;;13.35;;
29358;SDS011;16347;53.232;6.556;2024-02-14T14:32:51;21.27;;;14.52;;
29358;SDS011;16347;53.232;6.556;2024-02-14T14:35:21;23.38;;;16.33;;
29358;SDS011;16347;53.232;6.556;2024-02-14T14:37:49;22.83;;;16.17;;
29358;SDS011;16347;53.232;6.556;2024-02-14T14:40:18;24.02;;;17.90;;
29358;SDS011;16347;53.232;6.556;2024-02-14T14:42:47;21.63;;;16.55;;
29358;SDS011;16347;53.232;6.556;2024-02-14T14:45:15;26.08;;;18.73;;
29358;SDS011;16347;53.232;6.556;2024-02-14T14:47:43;25.63;;;17.88;;
29358;SDS011;16347;53.232;6.556;2024-02-14T14:50:12;24.98;;;18.58;;
29358;SDS011;16347;53.232;6.556;2024-02-14T14:52:41;26.17;;;18.48;;
29358;SDS011;16347;53.232;6.556;2024-02-14T14:55:10;22.33;;;17.08;;